createdAt,value
2023-01-06T00:00:01.354Z,332.2
2023-01-06T00:05:01.174Z,340.8
2023-01-06T00:10:01.005Z,336.2
2023-01-06T00:15:01.074Z,307.6
2023-01-06T00:20:01.259Z,325.9
2023-01-06T00:25:01.376Z,352.2
2023-01-06T00:30:01.148Z,330.5
2023-01-06T00:35:01.177Z,358.9
2023-01-06T00:40:01.436Z,400.7
2023-01-06T00:45:01.066Z,358.9
2023-01-06T00:50:01.002Z,306.9
2023-01-06T00:55:06.202Z,328.9
2023-01-06T01:00:00.959Z,281.7
2023-01-06T01:05:01.020Z,226.0
2023-01-06T01:10:00.944Z,242.0
2023-01-06T01:15:01.233Z,266.5
2023-01-06T01:20:01.383Z,272.9
2023-01-06T01:25:01.159Z,272.9
2023-01-06T01:30:00.943Z,277.6
2023-01-06T01:35:01.110Z,293.9
2023-01-06T01:40:01.993Z,291.2
2023-01-06T01:50:00.962Z,235.2
2023-01-06T01:55:01.524Z,231.6
2023-01-06T02:00:02.175Z,200.8
2023-01-06T02:05:01.159Z,214.0
2023-01-06T02:10:01.349Z,204.1
2023-01-06T02:30:01.842Z,160.0
2023-01-06T02:50:02.108Z,136.2
2023-01-06T03:10:02.222Z,140.4
2023-01-06T03:15:02.089Z,148.2
2023-01-06T03:20:02.233Z,155.5
2023-01-06T03:25:07.005Z,164.1
2023-01-06T03:40:01.837Z,190.8
2023-01-06T04:00:01.974Z,221.8
2023-01-06T04:05:01.939Z,222.0
2023-01-06T04:10:01.630Z,197.0
2023-01-06T04:15:06.933Z,185.6
2023-01-06T04:20:01.652Z,181.6
2023-01-06T04:25:01.993Z,170.0
2023-01-06T04:30:01.826Z,162.5
2023-01-06T04:35:02.237Z,160.6
2023-01-06T04:40:06.618Z,157.7
2023-01-06T04:45:02.070Z,207.5
2023-01-06T04:50:01.616Z,205.5
2023-01-06T04:55:01.977Z,199.9
2023-01-06T05:00:01.586Z,201.8
2023-01-06T05:05:02.676Z,204.9
2023-01-06T05:10:01.890Z,155.6
2023-01-06T05:15:01.894Z,161.5
2023-01-06T05:20:03.004Z,166.7
2023-01-06T05:25:01.702Z,180.6
2023-01-06T05:30:06.819Z,175.0
2023-01-06T05:35:01.719Z,169.6
2023-01-06T05:40:01.667Z,160.3
2023-01-06T05:45:01.723Z,158.8
2023-01-06T05:50:01.868Z,159.5
2023-01-06T05:55:01.887Z,180.8
2023-01-06T06:00:07.681Z,203.1
2023-01-06T06:05:01.710Z,225.0
2023-01-06T06:10:01.899Z,239.2
2023-01-06T06:15:01.964Z,246.7
2023-01-06T06:20:01.864Z,239.1
2023-01-06T06:25:06.433Z,221.7
2023-01-06T06:30:02.869Z,208.4
2023-01-06T06:35:01.611Z,195.9
2023-01-06T06:40:01.608Z,193.4
2023-01-06T06:45:01.729Z,190.0
2023-01-06T07:10:03.319Z,146.0
2023-01-06T07:20:01.932Z,158.3
2023-01-06T07:35:03.036Z,181.6
2023-01-06T07:40:02.887Z,182.2
2023-01-06T07:50:02.273Z,176.6
2023-01-06T07:55:01.983Z,182.7
2023-01-06T08:05:01.877Z,196.0
2023-01-06T08:10:02.699Z,210.9
2023-01-06T08:20:07.377Z,187.8
2023-01-06T08:25:02.113Z,170.2
2023-01-06T08:35:02.059Z,130.5
2023-01-06T08:40:01.866Z,133.2
2023-01-06T08:45:03.494Z,132.7
2023-01-06T08:50:02.196Z,133.7
2023-01-06T08:55:02.008Z,137.1
2023-01-06T09:05:02.159Z,129.3
2023-01-06T09:10:12.369Z,126.8
2023-01-06T09:30:01.823Z,110.2
2023-01-06T09:35:01.588Z,109.0
2023-01-06T09:40:01.477Z,106.9
2023-01-06T09:45:01.667Z,113.5
2023-01-06T09:50:01.814Z,114.3
2023-01-06T09:55:01.429Z,122.0
2023-01-06T10:00:01.323Z,128.7
2023-01-06T10:05:01.488Z,160.4
2023-01-06T10:40:01.871Z,187.4
2023-01-06T10:50:01.475Z,178.1
2023-01-06T10:55:01.571Z,177.3
2023-01-06T11:05:01.972Z,158.6
2023-01-06T11:10:01.570Z,148.2
2023-01-06T11:20:02.837Z,132.9
2023-01-06T11:25:01.754Z,133.9
2023-01-06T11:50:01.992Z,89.4
2023-01-06T11:55:01.712Z,92.6
2023-01-06T12:10:01.815Z,129.4
2023-01-06T12:15:03.658Z,119.7
2023-01-06T12:20:01.029Z,118.1
2023-01-06T12:40:07.063Z,127.6
2023-01-06T13:00:01.565Z,109.6
2023-01-06T13:05:01.230Z,103.7
2023-01-06T13:10:01.167Z,114.8
2023-01-06T13:15:01.836Z,115.7
2023-01-06T13:20:01.673Z,120.5
2023-01-06T13:25:01.391Z,125.2
2023-01-06T13:30:01.204Z,136.1
2023-01-06T13:50:02.356Z,148.0
2023-01-06T13:55:01.953Z,131.9
2023-01-06T14:00:01.901Z,137.6
2023-01-06T14:20:11.811Z,133.8
2023-01-06T14:40:02.362Z,136.0
2023-01-06T14:55:03.071Z,131.5
2023-01-06T15:00:02.189Z,136.9
2023-01-06T15:05:02.050Z,138.1
2023-01-06T15:30:02.094Z,161.0
2023-01-06T15:35:06.764Z,156.9
2023-01-06T15:40:07.458Z,163.6
2023-01-06T15:45:01.831Z,171.4
2023-01-06T15:50:02.176Z,176.2
2023-01-06T15:55:01.823Z,172.9
2023-01-06T16:05:07.027Z,178.8
2023-01-06T16:20:02.589Z,216.4
2023-01-06T16:25:01.931Z,189.0
2023-01-06T16:35:01.472Z,182.1
2023-01-06T16:40:06.734Z,181.6
2023-01-06T16:45:07.239Z,174.6
2023-01-06T16:50:01.546Z,178.3
2023-01-06T16:55:01.526Z,171.2
2023-01-06T17:00:02.046Z,168.4
2023-01-06T17:05:01.555Z,167.5
2023-01-06T17:10:01.815Z,164.7
2023-01-06T17:15:01.747Z,166.2
2023-01-06T17:20:01.981Z,173.3
2023-01-06T17:25:01.696Z,180.7
2023-01-06T17:30:01.394Z,187.4
2023-01-06T17:35:01.506Z,188.9
2023-01-06T17:40:01.534Z,181.8
2023-01-06T17:45:01.849Z,175.6
2023-01-06T17:50:01.432Z,166.7
2023-01-06T18:10:02.249Z,198.2
2023-01-06T18:15:01.872Z,195.5
2023-01-06T18:30:01.988Z,167.0
2023-01-06T18:35:01.925Z,168.2
2023-01-06T18:40:01.711Z,163.4
2023-01-06T18:45:06.534Z,158.0
2023-01-06T18:50:05.881Z,161.7
2023-01-06T19:10:02.210Z,163.2
2023-01-06T19:30:01.810Z,210.2
2023-01-06T19:50:02.205Z,154.2
2023-01-06T19:55:01.908Z,152.5
2023-01-06T20:10:02.184Z,151.6
2023-01-06T20:15:01.398Z,168.0
2023-01-06T20:20:01.265Z,167.7
2023-01-06T20:25:01.452Z,177.6
2023-01-06T20:30:01.716Z,173.8
2023-01-06T20:35:01.681Z,174.5
2023-01-06T20:40:01.305Z,175.7
2023-01-06T20:45:01.374Z,202.0
2023-01-06T20:50:01.475Z,197.1
2023-01-06T20:55:01.289Z,206.9
2023-01-06T21:00:01.501Z,215.8
2023-01-06T21:05:01.371Z,216.1
2023-01-06T21:10:01.544Z,193.4
2023-01-06T21:20:01.474Z,191.3
2023-01-06T21:25:01.339Z,185.0
2023-01-06T21:35:01.398Z,186.2
2023-01-06T21:40:04.965Z,187.3
2023-01-06T21:50:01.601Z,184.5
2023-01-06T21:55:01.403Z,177.4
2023-01-06T22:00:01.411Z,181.3
2023-01-06T22:05:01.446Z,173.8
2023-01-06T22:10:01.571Z,175.2
2023-01-06T22:15:01.313Z,213.2
2023-01-06T22:20:06.243Z,218.7
2023-01-06T22:25:01.390Z,221.9
2023-01-06T22:30:01.508Z,227.5
2023-01-06T22:35:01.414Z,230.0
2023-01-06T22:40:01.285Z,188.8
2023-01-06T22:45:01.270Z,181.1
2023-01-06T22:50:01.478Z,177.0
2023-01-06T22:55:01.411Z,174.6
2023-01-06T23:00:01.199Z,169.2
2023-01-06T23:05:01.320Z,172.7
2023-01-06T23:10:01.559Z,171.5
2023-01-06T23:20:01.462Z,164.4
2023-01-06T23:25:01.463Z,154.0
2023-01-06T23:30:01.574Z,145.6
2023-01-06T23:35:01.716Z,137.4
2023-01-06T23:40:01.750Z,128.3
2023-01-06T23:45:01.509Z,121.6
2023-01-06T23:50:01.685Z,123.9
2023-01-06T23:55:06.512Z,123.2
